Time;durP1;ratioP1;P1;durP2;ratioP2;P2;SDS_P1;SDS_P2;PMS_P1;PMS_P2;Temp;Humidity;BMP_temperature;BMP_pressure;BME280_temperature;BME280_humidity;BME280_pressure;Samples;Min_cycle;Max_cycle;Signal;HPM_P1;HPM_P2
2021/09/14 00:00:36;;;;;;;3.17;2.72;;;24.50;60.10;;;;;;5073230;28;20052;-46
2021/09/14 00:03:02;;;;;;;3.17;2.50;;;24.50;60.10;;;;;;5074847;28;20021;-46
2021/09/14 00:05:28;;;;;;;3.80;2.80;;;24.50;60.10;;;;;;5073804;28;20029;-47
2021/09/14 00:07:53;;;;;;;3.78;2.53;;;24.50;60.00;;;;;;5074894;28;20099;-46
2021/09/14 00:10:19;;;;;;;3.28;2.67;;;24.40;60.00;;;;;;5067998;28;20104;-49
2021/09/14 00:12:44;;;;;;;3.55;2.95;;;24.50;60.10;;;;;;5055131;28;20067;-46
2021/09/14 00:15:10;;;;;;;3.47;2.72;;;24.50;60.10;;;;;;5054023;28;20116;-61
2021/09/14 00:17:37;;;;;;;3.33;2.60;;;24.50;60.20;;;;;;5054640;28;20029;-51
2021/09/14 00:20:03;;;;;;;3.45;2.80;;;24.40;60.10;;;;;;5069208;28;20124;-47
2021/09/14 00:22:29;;;;;;;3.95;2.83;;;24.50;60.20;;;;;;5073878;28;20413;-47
2021/09/14 00:24:54;;;;;;;2.95;2.50;;;24.40;60.10;;;;;;5074654;28;20028;-50
2021/09/14 00:27:20;;;;;;;3.70;2.85;;;24.40;60.10;;;;;;5072975;28;20386;-50
2021/09/14 00:29:45;;;;;;;3.17;2.50;;;24.40;60.10;;;;;;5074278;28;20367;-47
2021/09/14 00:32:11;;;;;;;4.43;2.60;;;24.40;60.00;;;;;;5073994;28;20036;-50
2021/09/14 00:34:37;;;;;;;3.95;3.03;;;24.40;60.00;;;;;;5074617;28;20028;-46
2021/09/14 00:37:04;;;;;;;5.70;2.88;;;24.40;60.10;;;;;;5074338;28;20445;-47
2021/09/14 00:39:30;;;;;;;2.78;2.45;;;24.40;60.10;;;;;;5073333;28;20048;-49
2021/09/14 00:41:55;;;;;;;2.90;2.42;;;24.40;60.10;;;;;;5073091;28;20013;-46
2021/09/14 00:44:21;;;;;;;3.00;2.67;;;24.40;60.10;;;;;;5073923;28;20040;-51
2021/09/14 00:46:46;;;;;;;3.35;2.75;;;24.40;60.10;;;;;;5073793;28;20021;-47
2021/09/14 00:49:14;;;;;;;3.50;2.75;;;24.40;60.00;;;;;;5073222;28;20032;-51
2021/09/14 00:51:40;;;;;;;3.35;3.00;;;24.40;60.00;;;;;;5073828;28;20079;-47
2021/09/14 00:54:11;;;;;;;2.88;2.55;;;24.40;60.10;;;;;;5073863;28;20462;-49
2021/09/14 00:56:37;;;;;;;4.13;2.72;;;24.40;60.00;;;;;;5073770;28;20556;-46
2021/09/14 00:59:03;;;;;;;4.10;3.60;;;24.40;60.00;;;;;;5073584;28;20050;-49
2021/09/14 01:01:29;;;;;;;3.70;2.63;;;24.40;60.00;;;;;;5073188;28;20378;-47
2021/09/14 01:03:54;;;;;;;5.25;3.15;;;24.40;60.00;;;;;;5072512;28;20027;-48
2021/09/14 01:06:20;;;;;;;3.78;2.90;;;24.40;60.00;;;;;;5072131;28;20021;-52
2021/09/14 01:08:46;;;;;;;2.90;2.60;;;24.40;60.00;;;;;;5073502;28;20034;-48
2021/09/14 01:11:11;;;;;;;3.08;2.65;;;24.40;60.00;;;;;;5058456;28;20024;-50
2021/09/14 01:13:37;;;;;;;3.15;2.85;;;24.40;60.00;;;;;;5053817;28;20017;-47
2021/09/14 01:16:04;;;;;;;3.00;2.70;;;24.40;60.00;;;;;;5052223;28;20036;-51
2021/09/14 01:18:30;;;;;;;3.65;2.88;;;24.40;60.00;;;;;;5052616;28;20025;-49
2021/09/14 01:20:56;;;;;;;5.07;3.55;;;24.40;60.00;;;;;;5053459;28;20040;-49
2021/09/14 01:23:21;;;;;;;4.13;2.40;;;24.40;59.90;;;;;;5052396;28;20104;-49
2021/09/14 01:25:47;;;;;;;5.50;2.88;;;24.40;59.90;;;;;;5053532;28;20094;-47
2021/09/14 01:28:13;;;;;;;5.13;3.03;;;24.40;59.90;;;;;;5052521;28;20215;-57
2021/09/14 01:30:38;;;;;;;4.30;3.00;;;24.30;59.90;;;;;;5052750;28;20098;-46
2021/09/14 01:33:04;;;;;;;3.75;2.80;;;24.40;60.00;;;;;;5052616;28;20033;-46
2021/09/14 01:35:31;;;;;;;3.85;2.72;;;24.40;59.90;;;;;;5052484;28;20386;-46
2021/09/14 01:37:57;;;;;;;3.53;2.70;;;24.40;60.00;;;;;;5067705;28;20385;-46
2021/09/14 01:40:24;;;;;;;4.00;2.80;;;24.40;60.00;;;;;;5072216;28;20040;-47
2021/09/14 01:42:50;;;;;;;5.70;2.70;;;24.40;60.00;;;;;;5072723;28;20033;-49
2021/09/14 01:45:16;;;;;;;3.83;2.83;;;24.40;60.00;;;;;;5072363;28;20028;-47
2021/09/14 01:47:42;;;;;;;3.22;2.80;;;24.30;59.80;;;;;;5072798;28;20028;-47
2021/09/14 01:50:10;;;;;;;3.65;2.70;;;24.30;59.80;;;;;;5071929;28;20039;-47
2021/09/14 01:52:36;;;;;;;3.17;2.72;;;24.30;60.00;;;;;;5071712;28;20757;-46
2021/09/14 01:55:03;;;;;;;3.00;2.35;;;24.30;59.90;;;;;;5072967;28;20078;-47
2021/09/14 01:57:34;;;;;;;12.52;3.90;;;24.30;59.90;;;;;;5072098;28;20024;-48
2021/09/14 02:00:07;;;;;;;3.50;2.38;;;24.30;60.00;;;;;;5071721;28;20543;-48
2021/09/14 02:05:13;;;;;;;3.15;2.85;;;24.30;59.70;;;;;;5072680;28;20020;-47
2021/09/14 02:58:37;;;;;;;2.85;2.25;;;24.30;59.70;;;;;;5070698;28;20387;-53
2021/09/14 02:59:29;;;;;;;3.88;2.45;;;24.30;59.70;;;;;;5051135;28;20466;-55
2021/09/14 03:01:54;;;;;;;3.42;2.80;;;24.30;59.70;;;;;;5052377;28;20040;-48
2021/09/14 03:04:20;;;;;;;3.78;3.20;;;24.30;59.90;;;;;;5070796;28;20031;-51
2021/09/14 03:06:46;;;;;;;3.95;2.58;;;24.30;59.70;;;;;;5071518;28;20485;-47
2021/09/14 03:09:11;;;;;;;4.40;2.70;;;24.30;59.70;;;;;;5071966;28;20159;-48
2021/09/14 03:11:37;;;;;;;2.92;2.60;;;24.20;59.70;;;;;;5068077;28;20016;-49
2021/09/14 03:14:03;;;;;;;3.70;2.42;;;24.20;59.70;;;;;;5071725;28;20032;-47
2021/09/14 03:16:29;;;;;;;4.45;2.72;;;24.20;59.70;;;;;;5071044;28;20137;-48
2021/09/14 03:18:54;;;;;;;4.78;2.75;;;24.20;59.70;;;;;;5071656;28;20167;-48
2021/09/14 03:21:20;;;;;;;3.00;2.70;;;24.20;59.60;;;;;;5070801;28;20024;-46
2021/09/14 03:23:46;;;;;;;3.92;2.42;;;24.20;59.60;;;;;;5071320;28;20397;-49
2021/09/14 03:26:11;;;;;;;3.45;3.03;;;24.20;59.70;;;;;;5071895;28;20020;-47
2021/09/14 03:28:37;;;;;;;3.05;2.75;;;24.30;59.70;;;;;;5068579;28;20028;-47
2021/09/14 03:31:03;;;;;;;3.35;2.50;;;24.30;59.60;;;;;;5071780;28;20056;-49
2021/09/14 03:33:29;;;;;;;5.30;2.80;;;24.30;59.50;;;;;;5070924;28;20029;-50
2021/09/14 03:35:55;;;;;;;3.00;2.70;;;24.30;59.70;;;;;;5074612;28;20021;-47
2021/09/14 03:38:21;;;;;;;3.33;2.78;;;24.30;59.70;;;;;;5074665;28;20029;-48
2021/09/14 03:40:47;;;;;;;3.30;2.90;;;24.20;59.60;;;;;;5075482;28;20028;-47
2021/09/14 03:43:13;;;;;;;3.25;2.50;;;24.20;59.50;;;;;;5074248;28;20036;-50
2021/09/14 03:45:45;;;;;;;5.03;2.72;;;24.20;59.60;;;;;;5074587;28;20028;-47
2021/09/14 03:48:11;;;;;;;3.40;2.78;;;24.30;59.60;;;;;;5075313;28;20400;-47
2021/09/14 03:50:37;;;;;;;3.10;2.80;;;24.20;59.60;;;;;;5074503;28;20107;-47
2021/09/14 03:53:03;;;;;;;3.53;2.75;;;24.20;59.60;;;;;;5073906;28;20063;-49
2021/09/14 03:55:28;;;;;;;3.95;3.15;;;24.20;59.60;;;;;;5074437;28;20419;-48
2021/09/14 03:57:54;;;;;;;3.08;2.65;;;24.20;59.60;;;;;;5074959;28;20025;-48
2021/09/14 04:00:20;;;;;;;3.15;2.85;;;24.20;59.60;;;;;;5074121;28;20389;-51
2021/09/14 04:03:09;;;;;;;5.03;3.00;;;24.20;59.60;;;;;;5074379;28;20032;-46
2021/09/14 04:10:36;;;;;;;3.60;2.80;;;24.20;59.70;;;;;;5065976;28;20491;-47
2021/09/14 04:13:01;;;;;;;3.05;2.70;;;24.20;59.70;;;;;;5054982;28;20051;-46
2021/09/14 04:15:27;;;;;;;4.00;2.80;;;24.20;59.60;;;;;;5053680;28;20112;-50
2021/09/14 04:17:53;;;;;;;3.03;2.67;;;24.20;59.60;;;;;;5054742;28;20025;-47
2021/09/14 04:20:18;;;;;;;3.08;2.63;;;24.20;59.60;;;;;;5054012;28;20065;-58
2021/09/14 04:22:44;;;;;;;3.00;2.70;;;24.20;59.50;;;;;;5053890;28;20482;-48
2021/09/14 04:25:10;;;;;;;4.13;2.80;;;24.20;59.50;;;;;;5054333;28;20029;-51
2021/09/14 04:27:36;;;;;;;3.00;2.70;;;24.20;59.40;;;;;;5053095;28;20037;-49
2021/09/14 04:30:05;;;;;;;3.15;2.90;;;24.20;59.50;;;;;;5054473;28;20037;-48
2021/09/14 04:32:30;;;;;;;3.08;2.60;;;24.20;59.50;;;;;;5053395;28;20032;-47
2021/09/14 04:34:56;;;;;;;3.22;2.67;;;24.20;59.40;;;;;;5054102;28;20090;-52
2021/09/14 04:37:23;;;;;;;3.35;2.60;;;24.20;59.40;;;;;;5053254;28;20031;-54
2021/09/14 04:39:49;;;;;;;3.58;3.15;;;24.20;59.40;;;;;;5053957;28;20076;-47
2021/09/14 04:42:15;;;;;;;4.20;2.85;;;24.20;59.60;;;;;;5053779;28;20103;-46
2021/09/14 04:44:40;;;;;;;3.55;3.13;;;24.20;59.50;;;;;;5053262;28;20040;-46
2021/09/14 04:47:06;;;;;;;4.63;3.33;;;24.20;59.40;;;;;;5052719;28;20029;-46
2021/09/14 04:49:32;;;;;;;4.40;2.53;;;24.20;59.50;;;;;;5053029;28;20059;-46
2021/09/14 04:51:58;;;;;;;3.28;2.85;;;24.20;59.50;;;;;;5053398;28;20049;-46
2021/09/14 04:54:24;;;;;;;4.35;3.15;;;24.20;59.50;;;;;;5053343;28;20043;-46
2021/09/14 04:56:49;;;;;;;3.70;2.88;;;24.20;59.50;;;;;;5054183;28;20458;-46
2021/09/14 04:59:15;;;;;;;3.83;3.40;;;24.20;59.50;;;;;;5054261;28;20076;-46
2021/09/14 05:01:40;;;;;;;2.85;2.55;;;24.20;59.40;;;;;;5053013;28;20052;-47
2021/09/14 05:04:06;;;;;;;3.17;2.78;;;24.20;60.00;;;;;;5053973;28;20062;-46
2021/09/14 05:06:32;;;;;;;3.92;2.75;;;24.20;59.40;;;;;;5053315;28;20087;-47
2021/09/14 05:08:57;;;;;;;3.25;2.70;;;24.20;59.50;;;;;;5053703;28;20025;-50
2021/09/14 05:11:23;;;;;;;5.25;2.78;;;24.20;59.50;;;;;;5053262;28;20036;-46
2021/09/14 05:13:49;;;;;;;3.13;2.70;;;24.20;59.50;;;;;;5053646;28;20580;-48
2021/09/14 05:16:15;;;;;;;3.42;2.92;;;24.20;59.50;;;;;;5053720;28;20375;-49
2021/09/14 05:18:44;;;;;;;3.05;2.42;;;24.20;59.50;;;;;;5053104;28;20037;-51
2021/09/14 05:21:10;;;;;;;3.47;3.00;;;24.10;59.60;;;;;;5053398;28;20517;-48
2021/09/14 05:23:35;;;;;;;4.50;2.75;;;24.10;59.60;;;;;;5052897;28;20029;-49
2021/09/14 05:26:04;;;;;;;2.92;2.60;;;24.10;59.60;;;;;;5053026;28;20024;-46
2021/09/14 05:28:32;;;;;;;3.63;3.03;;;24.10;59.70;;;;;;5052734;28;20122;-46
2021/09/14 05:30:58;;;;;;;4.40;3.03;;;24.10;59.60;;;;;;5053550;28;20489;-48
2021/09/14 05:33:24;;;;;;;4.45;2.90;;;24.20;59.60;;;;;;5052916;28;20060;-48
2021/09/14 05:35:53;;;;;;;3.75;3.05;;;24.10;59.50;;;;;;5053334;28;20029;-51
2021/09/14 05:38:21;;;;;;;5.97;3.08;;;24.20;59.50;;;;;;5053401;28;20029;-49
2021/09/14 05:40:48;;;;;;;5.82;2.83;;;24.20;59.70;;;;;;5053175;28;20036;-47
2021/09/14 05:43:14;;;;;;;4.97;2.80;;;24.20;59.60;;;;;;5053243;28;20478;-50
2021/09/14 05:45:40;;;;;;;4.15;3.20;;;24.20;59.60;;;;;;5052326;28;20371;-51
2021/09/14 05:48:05;;;;;;;4.00;3.15;;;24.20;59.60;;;;;;5052118;28;20035;-50
2021/09/14 05:50:31;;;;;;;6.13;3.30;;;24.20;59.60;;;;;;5051728;28;20033;-46
2021/09/14 05:52:57;;;;;;;4.65;2.63;;;24.20;59.70;;;;;;5052584;28;20029;-45
2021/09/14 05:55:22;;;;;;;4.22;2.70;;;24.20;59.70;;;;;;5052551;28;20029;-48
2021/09/14 05:57:48;;;;;;;6.05;3.20;;;24.20;59.60;;;;;;5052109;28;20027;-47
2021/09/14 06:00:14;;;;;;;5.72;3.13;;;24.30;59.30;;;;;;5052732;28;20107;-46
2021/09/14 06:02:40;;;;;;;10.27;3.30;;;24.30;60.00;;;;;;5051920;28;20132;-46
2021/09/14 06:05:07;;;;;;;5.10;2.78;;;24.30;59.30;;;;;;5052683;28;20099;-46
2021/09/14 06:07:33;;;;;;;5.63;4.05;;;24.30;59.30;;;;;;5051804;28;20029;-45
2021/09/14 06:09:59;;;;;;;4.75;3.55;;;24.20;59.00;;;;;;5052052;28;20465;-46
2021/09/14 06:12:25;;;;;;;6.50;4.15;;;24.10;59.40;;;;;;5050248;28;20475;-57
2021/09/14 06:14:51;;;;;;;8.57;4.05;;;24.10;59.60;;;;;;5052516;28;20031;-48
2021/09/14 06:17:16;;;;;;;5.63;3.72;;;24.00;59.30;;;;;;5052286;28;20025;-46
2021/09/14 06:19:42;;;;;;;6.38;4.40;;;24.00;59.10;;;;;;5051708;28;20597;-49
2021/09/14 06:22:08;;;;;;;6.57;3.80;;;23.90;59.10;;;;;;5052144;28;20423;-46
2021/09/14 06:24:34;;;;;;;8.95;4.05;;;23.90;59.20;;;;;;5051601;28;20158;-51
2021/09/14 06:26:59;;;;;;;8.27;4.05;;;23.90;59.20;;;;;;5051761;28;20100;-48
2021/09/14 06:29:25;;;;;;;5.00;4.00;;;24.00;59.20;;;;;;5052018;28;20037;-47
2021/09/14 06:31:51;;;;;;;8.88;3.83;;;24.00;59.20;;;;;;5052543;28;20142;-47
2021/09/14 06:34:16;;;;;;;4.80;3.35;;;24.00;59.50;;;;;;5051738;28;20044;-50
2021/09/14 06:36:42;;;;;;;9.05;3.40;;;24.00;59.70;;;;;;5051646;28;20025;-51
2021/09/14 06:39:08;;;;;;;6.25;4.13;;;24.00;59.80;;;;;;5051894;28;20033;-48
2021/09/14 06:41:33;;;;;;;7.90;3.88;;;24.00;59.90;;;;;;5051921;28;20055;-46
2021/09/14 06:43:59;;;;;;;7.40;3.85;;;24.00;59.90;;;;;;5051849;28;20029;-48
2021/09/14 06:46:25;;;;;;;7.10;3.50;;;24.10;59.90;;;;;;5049169;28;20028;-51
2021/09/14 06:48:51;;;;;;;5.85;3.40;;;24.00;59.80;;;;;;5050943;28;20444;-48
2021/09/14 06:51:18;;;;;;;5.30;3.92;;;24.10;60.00;;;;;;5050731;28;20025;-47
2021/09/14 06:53:43;;;;;;;5.80;3.78;;;24.10;59.90;;;;;;5043469;28;20024;-46
2021/09/14 06:56:09;;;;;;;5.07;3.75;;;24.00;60.00;;;;;;5053270;28;20530;-46
2021/09/14 06:58:35;;;;;;;6.30;3.65;;;24.00;60.00;;;;;;5052463;28;20040;-47
2021/09/14 07:01:01;;;;;;;6.80;3.67;;;24.10;59.90;;;;;;5051629;28;20048;-47
2021/09/14 07:03:27;;;;;;;7.05;4.38;;;24.20;59.90;;;;;;5051121;28;20091;-47
2021/09/14 07:05:52;;;;;;;5.43;3.78;;;24.20;59.90;;;;;;5052410;28;20425;-49
2021/09/14 07:08:18;;;;;;;4.43;3.58;;;24.20;59.90;;;;;;5051850;28;20056;-48
2021/09/14 07:10:44;;;;;;;4.25;3.78;;;24.20;60.00;;;;;;5054474;28;20040;-49
2021/09/14 07:13:10;;;;;;;7.15;4.00;;;24.20;60.00;;;;;;5055511;28;20504;-46
2021/09/14 07:15:36;;;;;;;4.95;4.00;;;24.20;60.00;;;;;;5054837;28;20033;-46
2021/09/14 07:18:02;;;;;;;7.03;3.90;;;24.20;60.00;;;;;;5055650;28;20047;-46
2021/09/14 07:20:28;;;;;;;7.70;3.88;;;24.20;60.00;;;;;;5053719;28;20526;-48
2021/09/14 07:22:54;;;;;;;6.32;4.45;;;24.20;60.00;;;;;;5055998;28;20105;-46
2021/09/14 07:25:19;;;;;;;4.47;3.92;;;24.20;60.00;;;;;;5055297;28;20099;-46
2021/09/14 07:27:45;;;;;;;7.03;4.35;;;24.20;60.00;;;;;;5054666;28;20033;-47
2021/09/14 07:30:12;;;;;;;9.48;4.40;;;24.10;60.00;;;;;;5055771;28;20449;-46
2021/09/14 07:32:37;;;;;;;4.00;3.13;;;24.10;60.10;;;;;;5055371;28;20378;-48
2021/09/14 07:35:05;;;;;;;4.00;3.58;;;24.10;60.20;;;;;;5055438;28;20032;-47
2021/09/14 07:37:31;;;;;;;5.63;3.85;;;24.10;60.30;;;;;;5055148;28;20033;-46
2021/09/14 07:39:57;;;;;;;8.68;4.50;;;24.10;60.30;;;;;;5055447;28;20080;-46
2021/09/14 07:42:22;;;;;;;9.18;4.00;;;24.10;60.40;;;;;;5055256;28;20075;-46
2021/09/14 07:44:50;;;;;;;6.25;3.42;;;24.10;60.40;;;;;;5054816;28;20563;-50
2021/09/14 07:47:16;;;;;;;5.63;3.80;;;24.10;60.40;;;;;;5055510;28;20064;-47
2021/09/14 07:49:41;;;;;;;4.75;3.42;;;24.20;60.50;;;;;;5054708;28;20043;-50
2021/09/14 07:52:07;;;;;;;5.97;3.78;;;24.20;60.40;;;;;;5055298;28;20029;-52
2021/09/14 07:54:33;;;;;;;5.28;3.00;;;24.20;60.40;;;;;;5054895;28;20118;-52
2021/09/14 07:56:59;;;;;;;5.43;3.83;;;24.20;60.50;;;;;;5050595;28;20028;-49
2021/09/14 07:59:24;;;;;;;7.88;3.60;;;24.20;60.40;;;;;;5054357;28;20649;-53
2021/09/14 08:01:50;;;;;;;7.82;3.72;;;24.20;60.50;;;;;;5055315;28;20545;-51
2021/09/14 08:04:16;;;;;;;6.90;3.58;;;24.20;60.40;;;;;;5056414;28;20032;-53
2021/09/14 08:06:41;;;;;;;4.25;3.65;;;24.20;60.40;;;;;;5054528;28;20057;-51
2021/09/14 08:09:07;;;;;;;6.53;3.20;;;24.20;60.40;;;;;;5054897;28;20025;-47
2021/09/14 08:11:32;;;;;;;6.35;3.75;;;24.30;60.40;;;;;;5054267;28;20021;-49
2021/09/14 08:13:58;;;;;;;5.45;3.08;;;24.30;60.50;;;;;;5055223;28;20380;-48
2021/09/14 08:16:24;;;;;;;5.43;3.50;;;24.30;60.60;;;;;;5055265;28;20032;-48
2021/09/14 08:18:49;;;;;;;4.50;3.22;;;24.30;60.60;;;;;;5048245;28;20033;-48
2021/09/14 08:21:15;;;;;;;6.50;3.47;;;24.20;60.60;;;;;;5053917;28;20036;-49
2021/09/14 08:23:41;;;;;;;4.50;3.30;;;24.30;60.60;;;;;;5054017;28;20057;-47
2021/09/14 08:26:06;;;;;;;4.75;3.55;;;24.30;60.70;;;;;;5056378;28;20474;-47
2021/09/14 08:28:32;;;;;;;4.88;3.42;;;24.30;60.70;;;;;;5073770;28;20504;-47
2021/09/14 08:30:57;;;;;;;8.50;3.55;;;24.30;60.70;;;;;;5053612;28;20025;-46
2021/09/14 08:33:23;;;;;;;5.00;3.30;;;24.30;60.70;;;;;;5054238;28;20360;-47
2021/09/14 08:35:49;;;;;;;5.00;3.30;;;24.30;60.70;;;;;;5050741;28;20500;-46
2021/09/14 08:38:14;;;;;;;5.30;3.20;;;24.30;60.80;;;;;;5053751;28;20481;-52
2021/09/14 08:40:41;;;;;;;4.45;3.08;;;24.30;60.80;;;;;;5053454;28;20606;-47
2021/09/14 08:43:11;;;;;;;4.82;3.38;;;24.30;60.80;;;;;;5051636;28;20044;-51
2021/09/14 08:45:37;;;;;;;5.65;3.08;;;24.30;60.80;;;;;;5068264;28;20389;-48
2021/09/14 08:48:04;;;;;;;9.85;4.60;;;24.30;60.90;;;;;;5053190;28;20025;-49
2021/09/14 08:50:29;;;;;;;6.72;3.75;;;24.30;61.00;;;;;;5051891;28;20021;-50
2021/09/14 08:52:55;;;;;;;7.28;3.00;;;24.20;61.10;;;;;;5053670;28;20052;-47
2021/09/14 08:55:24;;;;;;;5.10;3.60;;;24.20;61.00;;;;;;5053589;28;20123;-46
2021/09/14 08:57:51;;;;;;;5.97;3.42;;;24.20;61.00;;;;;;5068431;28;20602;-47
2021/09/14 09:00:29;;;;;;;4.65;2.90;;;24.20;60.90;;;;;;5073465;28;20052;-49
2021/09/14 09:02:55;;;;;;;5.45;3.75;;;24.20;60.90;;;;;;5073121;28;20021;-49
2021/09/14 09:05:29;;;;;;;3.70;2.80;;;24.20;60.80;;;;;;5072855;28;20033;-47
2021/09/14 09:07:55;;;;;;;4.65;3.58;;;24.20;60.80;;;;;;5073251;28;20032;-48
2021/09/14 09:10:21;;;;;;;5.95;2.88;;;24.20;60.70;;;;;;5067454;28;20091;-46
2021/09/14 09:12:48;;;;;;;4.30;3.35;;;24.20;60.70;;;;;;5052531;28;20033;-53
2021/09/14 09:15:25;;;;;;;5.93;2.90;;;24.20;60.70;;;;;;5053221;28;20028;-52
2021/09/14 09:18:00;;;;;;;3.60;2.92;;;24.30;60.70;;;;;;5052395;28;20062;-50
2021/09/14 09:20:26;;;;;;;3.30;2.83;;;24.20;60.70;;;;;;5053198;28;20037;-50
2021/09/14 09:23:07;;;;;;;5.32;3.17;;;24.20;60.70;;;;;;5051705;28;20028;-47
2021/09/14 09:25:33;;;;;;;4.45;3.17;;;24.20;60.60;;;;;;5052543;28;20086;-55
2021/09/14 09:28:08;;;;;;;4.80;2.83;;;24.20;60.80;;;;;;5069942;28;20033;-48
2021/09/14 09:30:36;;;;;;;3.45;2.67;;;24.30;60.60;;;;;;5071480;28;20112;-59
2021/09/14 09:33:07;;;;;;;3.72;3.20;;;24.20;60.60;;;;;;5072114;28;20029;-51
2021/09/14 09:35:38;;;;;;;6.22;2.83;;;24.30;60.60;;;;;;5071388;28;20020;-56
2021/09/14 09:38:05;;;;;;;4.50;3.22;;;24.30;60.50;;;;;;5062304;28;20029;-49
2021/09/14 09:40:43;;;;;;;4.43;3.20;;;24.30;60.50;;;;;;5052614;28;20033;-56
2021/09/14 09:43:11;;;;;;;4.45;3.05;;;24.30;60.50;;;;;;5052496;28;20029;-48
2021/09/14 09:45:47;;;;;;;5.25;3.30;;;24.30;60.70;;;;;;5051574;28;20467;-46
2021/09/14 09:48:15;;;;;;;5.25;3.15;;;24.30;60.60;;;;;;5052856;28;20021;-47
2021/09/14 09:50:42;;;;;;;3.25;2.85;;;24.30;60.70;;;;;;5052225;28;20040;-50
2021/09/14 09:53:09;;;;;;;6.90;3.50;;;24.30;60.60;;;;;;5052991;28;20021;-48
2021/09/14 09:55:36;;;;;;;4.47;3.08;;;24.40;60.60;;;;;;5051783;28;20129;-47
2021/09/14 09:58:05;;;;;;;5.05;2.92;;;24.40;60.60;;;;;;5069761;28;20150;-50
2021/09/14 10:00:38;;;;;;;5.22;3.13;;;24.30;60.50;;;;;;5070896;28;20052;-49
2021/09/14 10:03:14;;;;;;;5.82;3.08;;;24.40;60.80;;;;;;5072430;28;20387;-49
2021/09/14 10:05:43;;;;;;;4.28;3.13;;;24.40;60.40;;;;;;5071711;28;20020;-47
2021/09/14 10:08:22;;;;;;;6.85;3.50;;;24.50;60.50;;;;;;5070785;28;20028;-48
2021/09/14 10:10:55;;;;;;;5.60;2.60;;;24.50;60.60;;;;;;5061029;28;20453;-48
2021/09/14 10:13:29;;;;;;;11.00;3.00;;;24.50;61.00;;;;;;5052056;28;20029;-52
2021/09/14 10:15:55;;;;;;;3.75;2.78;;;24.40;60.80;;;;;;5051894;28;20044;-49
2021/09/14 10:18:27;;;;;;;6.72;3.25;;;24.50;60.80;;;;;;5053103;28;20033;-47
2021/09/14 10:20:52;;;;;;;5.82;3.00;;;24.50;60.80;;;;;;5051229;28;20025;-46
2021/09/14 10:23:21;;;;;;;8.48;3.33;;;24.50;60.90;;;;;;5052279;28;20108;-46
2021/09/14 10:25:51;;;;;;;4.57;3.17;;;24.50;61.00;;;;;;5052043;28;20020;-50
2021/09/14 10:28:19;;;;;;;6.22;3.25;;;24.50;60.90;;;;;;5072003;28;20036;-46
2021/09/14 10:30:47;;;;;;;5.82;4.22;;;24.50;60.90;;;;;;5071393;28;20031;-49
2021/09/14 10:33:29;;;;;;;6.35;3.50;;;24.50;60.70;;;;;;5072719;28;20024;-50
2021/09/14 10:35:56;;;;;;;4.63;3.50;;;24.50;60.70;;;;;;5071248;28;20028;-45
2021/09/14 10:38:23;;;;;;;6.93;4.00;;;24.60;60.90;;;;;;5071417;28;20121;-48
2021/09/14 10:40:51;;;;;;;6.47;4.00;;;24.60;60.80;;;;;;5071074;28;20028;-47
2021/09/14 10:43:35;;;;;;;6.05;4.40;;;24.60;60.60;;;;;;5071038;28;20039;-47
2021/09/14 10:46:01;;;;;;;5.43;3.22;;;24.60;60.10;;;;;;5071149;28;20020;-46
2021/09/14 10:48:30;;;;;;;4.93;3.75;;;24.70;60.30;;;;;;5045013;28;20541;-49
2021/09/14 10:51:11;;;;;;;6.30;3.97;;;24.70;60.00;;;;;;5051907;28;20047;-45
2021/09/14 10:53:37;;;;;;;5.07;3.30;;;24.70;60.10;;;;;;5050448;28;20033;-57
2021/09/14 10:56:04;;;;;;;5.15;3.63;;;24.70;60.20;;;;;;5051940;28;20033;-48
2021/09/14 10:58:40;;;;;;;5.70;4.65;;;24.60;60.20;;;;;;5071444;28;20111;-51
2021/09/14 11:01:06;;;;;;;5.70;4.90;;;24.60;60.30;;;;;;5071795;28;20552;-48
2021/09/14 11:03:31;;;;;;;6.90;4.07;;;24.60;62.20;;;;;;5073378;28;20025;-48
2021/09/14 11:05:57;;;;;;;7.85;4.20;;;24.70;61.70;;;;;;5070783;28;20078;-50
2021/09/14 11:08:26;;;;;;;7.43;4.00;;;24.70;61.60;;;;;;5071494;28;20078;-47
2021/09/14 11:11:01;;;;;;;5.75;3.83;;;24.70;61.20;;;;;;5059979;28;20087;-47
2021/09/14 11:13:31;;;;;;;6.65;3.88;;;24.70;61.30;;;;;;5050348;28;20481;-46
2021/09/14 11:15:58;;;;;;;6.97;4.15;;;24.70;61.40;;;;;;5050489;28;20060;-47
2021/09/14 11:18:27;;;;;;;5.95;3.65;;;24.70;61.30;;;;;;5051684;28;20518;-46
2021/09/14 11:21:07;;;;;;;6.75;3.67;;;24.60;62.00;;;;;;5050503;28;20036;-48
2021/09/14 11:23:33;;;;;;;5.07;3.60;;;24.60;61.60;;;;;;5051771;28;20029;-48
2021/09/14 11:26:00;;;;;;;5.70;3.35;;;24.70;61.60;;;;;;5051306;28;20640;-51
2021/09/14 11:28:26;;;;;;;8.13;4.15;;;24.70;61.40;;;;;;5071371;28;20039;-48
2021/09/14 11:30:53;;;;;;;4.22;3.35;;;24.60;61.50;;;;;;5070266;28;20041;-46
2021/09/14 11:33:19;;;;;;;7.60;3.55;;;24.60;61.50;;;;;;5071269;28;20028;-48
2021/09/14 11:35:45;;;;;;;4.53;3.45;;;24.60;61.40;;;;;;5070490;28;20032;-47
2021/09/14 11:38:12;;;;;;;5.13;3.45;;;24.60;61.60;;;;;;5067695;28;20021;-61
2021/09/14 11:40:46;;;;;;;9.02;3.72;;;24.60;61.70;;;;;;5044724;28;20068;-46
2021/09/14 11:43:21;;;;;;;9.38;4.60;;;24.70;61.70;;;;;;5052619;28;20033;-46
2021/09/14 11:45:47;;;;;;;4.53;3.38;;;24.70;61.90;;;;;;5051918;28;20056;-46
2021/09/14 11:48:21;;;;;;;8.73;3.70;;;24.70;62.00;;;;;;5050848;28;20116;-48
2021/09/14 11:50:48;;;;;;;9.27;4.78;;;24.80;61.90;;;;;;5050263;28;20032;-48
2021/09/14 11:53:17;;;;;;;5.13;3.90;;;24.80;61.90;;;;;;5051136;28;20029;-48
2021/09/14 11:55:49;;;;;;;6.47;3.95;;;24.80;61.90;;;;;;5051859;28;20028;-51
2021/09/14 11:58:15;;;;;;;;;;;24.80;62.00;;;;;;5074301;28;20051;-47
2021/09/14 12:00:49;;;;;;;7.68;3.88;;;24.80;62.20;;;;;;5073803;28;19920;-58
2021/09/14 12:03:17;;;;;;;5.55;3.42;;;24.80;62.20;;;;;;5073560;28;20622;-49
2021/09/14 12:05:56;;;;;;;5.80;3.55;;;24.80;62.10;;;;;;5073422;28;20037;-52
2021/09/14 12:08:40;;;;;;;5.15;3.45;;;24.80;62.40;;;;;;5071834;28;20036;-47
2021/09/14 12:11:06;;;;;;;7.13;3.60;;;24.80;62.20;;;;;;5044735;28;20041;-47
2021/09/14 12:13:43;;;;;;;7.22;3.58;;;24.80;62.30;;;;;;5051137;28;20432;-49
2021/09/14 12:16:13;;;;;;;5.85;3.28;;;24.80;62.40;;;;;;5054217;28;20044;-46
2021/09/14 12:18:42;;;;;;;8.55;4.07;;;24.80;62.40;;;;;;5055025;28;20039;-57
2021/09/14 12:21:08;;;;;;;7.38;3.95;;;24.80;62.50;;;;;;5054474;28;20454;-48
2021/09/14 12:23:34;;;;;;;6.38;3.92;;;24.80;62.50;;;;;;5054545;28;20098;-50
2021/09/14 12:26:00;;;;;;;5.28;3.40;;;24.80;62.60;;;;;;5054297;28;20025;-48
2021/09/14 12:28:26;;;;;;;5.00;3.53;;;24.80;62.60;;;;;;5068504;28;20069;-50
2021/09/14 12:30:51;;;;;;;5.53;3.33;;;24.80;62.80;;;;;;5051961;28;20040;-46
2021/09/14 12:33:17;;;;;;;5.85;3.30;;;24.80;62.70;;;;;;5053328;28;20036;-46
2021/09/14 12:35:44;;;;;;;5.15;3.38;;;24.80;62.70;;;;;;5051964;28;20481;-56
2021/09/14 12:38:09;;;;;;;3.83;3.13;;;24.80;62.60;;;;;;5050173;28;20483;-57
2021/09/14 12:40:35;;;;;;;5.97;3.38;;;24.90;62.50;;;;;;5048685;28;20047;-48
2021/09/14 12:43:01;;;;;;;4.90;3.08;;;24.90;62.50;;;;;;5051616;28;20641;-48
2021/09/14 12:45:27;;;;;;;4.13;3.35;;;25.00;62.50;;;;;;5053357;28;20113;-45
2021/09/14 12:47:52;;;;;;;4.10;2.90;;;25.00;62.40;;;;;;5048779;28;20135;-46
2021/09/14 12:50:18;;;;;;;8.80;3.45;;;25.00;62.40;;;;;;5040102;28;20541;-49
2021/09/14 12:52:44;;;;;;;4.72;3.35;;;25.00;62.40;;;;;;5052420;28;20425;-54
2021/09/14 12:55:10;;;;;;;5.65;3.47;;;25.10;62.30;;;;;;5052729;28;20441;-47
2021/09/14 12:57:36;;;;;;;5.05;3.13;;;25.10;62.20;;;;;;5051273;28;20025;-48
2021/09/14 13:00:03;;;;;;;5.72;3.55;;;25.10;62.10;;;;;;5051902;28;20045;-47
2021/09/14 13:02:29;;;;;;;4.22;3.33;;;25.20;62.20;;;;;;5051856;28;20475;-46
2021/09/14 13:04:55;;;;;;;4.20;3.15;;;25.20;62.30;;;;;;5051918;28;20032;-47
2021/09/14 13:07:20;;;;;;;7.07;3.20;;;25.20;62.30;;;;;;5051013;28;20529;-46
2021/09/14 13:09:46;;;;;;;4.95;3.35;;;25.20;62.20;;;;;;5051656;28;20085;-46
2021/09/14 13:12:18;;;;;;;5.28;3.10;;;25.20;62.20;;;;;;5053299;28;20055;-46
2021/09/14 13:17:28;;;;;;;7.10;3.33;;;25.30;62.10;;;;;;5051398;28;20083;-47
2021/09/14 13:19:54;;;;;;;3.67;3.38;;;25.30;62.10;;;;;;5045098;28;20025;-47
2021/09/14 13:22:19;;;;;;;5.45;3.78;;;25.30;62.00;;;;;;5052500;28;20474;-47
2021/09/14 13:24:45;;;;;;;7.38;3.30;;;25.20;61.90;;;;;;5051480;28;20107;-56
2021/09/14 13:27:11;;;;;;;4.95;3.55;;;25.30;61.90;;;;;;5054386;28;20102;-46
2021/09/14 13:29:37;;;;;;;5.53;3.13;;;25.30;61.90;;;;;;5047908;28;20033;-45
2021/09/14 13:32:02;;;;;;;6.75;3.47;;;25.30;61.80;;;;;;5051803;28;20471;-48
2021/09/14 13:34:28;;;;;;;5.10;3.22;;;25.30;61.70;;;;;;5052182;28;20049;-47
2021/09/14 13:36:54;;;;;;;4.88;3.33;;;25.30;62.20;;;;;;5051473;28;20453;-49
2021/09/14 13:39:19;;;;;;;3.90;3.22;;;25.30;61.60;;;;;;5051611;28;20458;-46
2021/09/14 13:41:49;;;;;;;4.75;3.45;;;25.30;61.50;;;;;;5051309;28;20457;-56
2021/09/14 13:47:00;;;;;;;4.68;3.25;;;25.20;61.70;;;;;;5050830;28;20486;-50
2021/09/14 13:49:26;;;;;;;4.20;3.15;;;25.20;61.70;;;;;;5051488;28;20033;-46